sensor_id;sensor_type;location;lat;lon;timestamp;temperature;humidity
15617;DHT22;7908;51.688;7.130;2023-12-29T00:02:28;10.60;99.90
15617;DHT22;7908;51.688;7.130;2023-12-29T00:04:58;10.60;99.90
15617;DHT22;7908;51.688;7.130;2023-12-29T00:07:26;10.60;99.90
15617;DHT22;7908;51.688;7.130;2023-12-29T00:09:58;10.60;99.90
15617;DHT22;7908;51.688;7.130;2023-12-29T00:12:32;10.60;99.90
15617;DHT22;7908;51.688;7.130;2023-12-29T00:15:00;10.60;99.90
15617;DHT22;7908;51.688;7.130;2023-12-29T00:17:30;10.60;99.90
15617;DHT22;7908;51.688;7.130;2023-12-29T00:20:04;10.50;99.90
15617;DHT22;7908;51.688;7.130;2023-12-29T00:22:59;10.60;99.90
15617;DHT22;7908;51.688;7.130;2023-12-29T00:25:28;10.60;99.90
15617;DHT22;7908;51.688;7.130;2023-12-29T00:27:59;10.60;99.90
15617;DHT22;7908;51.688;7.130;2023-12-29T00:30:29;10.60;99.90
15617;DHT22;7908;51.688;7.130;2023-12-29T00:33:17;10.60;99.90
15617;DHT22;7908;51.688;7.130;2023-12-29T00:35:48;10.60;99.90
15617;DHT22;7908;51.688;7.130;2023-12-29T00:38:19;10.60;99.90
15617;DHT22;7908;51.688;7.130;2023-12-29T00:40:49;10.60;99.90
15617;DHT22;7908;51.688;7.130;2023-12-29T00:43:20;10.60;99.90
15617;DHT22;7908;51.688;7.130;2023-12-29T00:45:53;10.60;99.90
15617;DHT22;7908;51.688;7.130;2023-12-29T00:48:21;10.60;99.90
15617;DHT22;7908;51.688;7.130;2023-12-29T00:50:50;10.60;99.90
15617;DHT22;7908;51.688;7.130;2023-12-29T00:53:21;10.60;99.90
15617;DHT22;7908;51.688;7.130;2023-12-29T00:55:49;10.60;99.90
15617;DHT22;7908;51.688;7.130;2023-12-29T00:58:19;10.70;99.90
15617;DHT22;7908;51.688;7.130;2023-12-29T01:00:48;10.70;99.90
15617;DHT22;7908;51.688;7.130;2023-12-29T01:03:19;10.70;99.90
15617;DHT22;7908;51.688;7.130;2023-12-29T01:05:52;10.70;99.90
15617;DHT22;7908;51.688;7.130;2023-12-29T01:08:21;10.70;99.90
15617;DHT22;7908;51.688;7.130;2023-12-29T01:10:49;10.70;99.90
15617;DHT22;7908;51.688;7.130;2023-12-29T01:13:22;10.70;99.90
15617;DHT22;7908;51.688;7.130;2023-12-29T01:15:51;10.70;99.90
15617;DHT22;7908;51.688;7.130;2023-12-29T01:18:19;10.70;99.90
15617;DHT22;7908;51.688;7.130;2023-12-29T01:20:48;10.70;99.90
15617;DHT22;7908;51.688;7.130;2023-12-29T01:23:16;10.70;99.90
15617;DHT22;7908;51.688;7.130;2023-12-29T01:25:53;10.70;99.90
15617;DHT22;7908;51.688;7.130;2023-12-29T01:28:23;10.70;99.90
15617;DHT22;7908;51.688;7.130;2023-12-29T01:30:55;10.60;99.90
15617;DHT22;7908;51.688;7.130;2023-12-29T01:33:24;10.50;99.90
15617;DHT22;7908;51.688;7.130;2023-12-29T01:35:58;10.40;99.90
15617;DHT22;7908;51.688;7.130;2023-12-29T01:38:40;10.20;99.90
15617;DHT22;7908;51.688;7.130;2023-12-29T01:41:09;10.10;99.90
15617;DHT22;7908;51.688;7.130;2023-12-29T01:46:25;9.80;99.90
15617;DHT22;7908;51.688;7.130;2023-12-29T01:48:55;9.70;99.90
15617;DHT22;7908;51.688;7.130;2023-12-29T01:51:24;9.60;99.90
15617;DHT22;7908;51.688;7.130;2023-12-29T01:53:53;9.50;99.90
15617;DHT22;7908;51.688;7.130;2023-12-29T01:56:23;9.50;99.90
15617;DHT22;7908;51.688;7.130;2023-12-29T01:58:52;9.40;99.90
15617;DHT22;7908;51.688;7.130;2023-12-29T02:01:35;9.40;99.90
15617;DHT22;7908;51.688;7.130;2023-12-29T02:04:04;9.40;99.90
15617;DHT22;7908;51.688;7.130;2023-12-29T02:06:33;9.40;99.90
15617;DHT22;7908;51.688;7.130;2023-12-29T02:09:02;9.30;99.90
15617;DHT22;7908;51.688;7.130;2023-12-29T02:11:34;9.20;99.90
15617;DHT22;7908;51.688;7.130;2023-12-29T02:14:02;9.10;99.90
15617;DHT22;7908;51.688;7.130;2023-12-29T02:16:35;9.10;99.90
15617;DHT22;7908;51.688;7.130;2023-12-29T02:19:12;9.00;99.90
15617;DHT22;7908;51.688;7.130;2023-12-29T02:21:41;9.00;99.90
15617;DHT22;7908;51.688;7.130;2023-12-29T02:24:10;9.00;99.90
15617;DHT22;7908;51.688;7.130;2023-12-29T02:26:39;8.90;99.90
15617;DHT22;7908;51.688;7.130;2023-12-29T02:29:11;8.90;99.90
15617;DHT22;7908;51.688;7.130;2023-12-29T02:31:40;8.90;99.90
15617;DHT22;7908;51.688;7.130;2023-12-29T02:34:12;8.90;99.90
15617;DHT22;7908;51.688;7.130;2023-12-29T02:36:42;8.90;99.90
15617;DHT22;7908;51.688;7.130;2023-12-29T02:39:11;8.90;99.90
15617;DHT22;7908;51.688;7.130;2023-12-29T02:41:41;8.80;99.90
15617;DHT22;7908;51.688;7.130;2023-12-29T02:44:09;8.90;99.90
15617;DHT22;7908;51.688;7.130;2023-12-29T02:46:38;8.80;99.90
15617;DHT22;7908;51.688;7.130;2023-12-29T02:49:06;8.80;99.90
15617;DHT22;7908;51.688;7.130;2023-12-29T02:51:39;8.80;99.90
15617;DHT22;7908;51.688;7.130;2023-12-29T02:54:08;8.80;99.90
15617;DHT22;7908;51.688;7.130;2023-12-29T02:56:36;8.70;99.90
15617;DHT22;7908;51.688;7.130;2023-12-29T02:59:06;8.70;99.90
15617;DHT22;7908;51.688;7.130;2023-12-29T03:01:34;8.70;99.90
15617;DHT22;7908;51.688;7.130;2023-12-29T03:04:03;8.70;99.90
15617;DHT22;7908;51.688;7.130;2023-12-29T03:06:33;8.70;99.90
15617;DHT22;7908;51.688;7.130;2023-12-29T03:09:01;8.70;99.90
15617;DHT22;7908;51.688;7.130;2023-12-29T03:11:29;8.70;99.90
15617;DHT22;7908;51.688;7.130;2023-12-29T03:13:58;8.70;99.90
15617;DHT22;7908;51.688;7.130;2023-12-29T03:16:28;8.70;99.90
15617;DHT22;7908;51.688;7.130;2023-12-29T03:18:56;8.80;99.90
15617;DHT22;7908;51.688;7.130;2023-12-29T03:21:25;8.80;99.90
15617;DHT22;7908;51.688;7.130;2023-12-29T03:23:55;8.80;99.90
15617;DHT22;7908;51.688;7.130;2023-12-29T03:26:23;8.80;99.90
15617;DHT22;7908;51.688;7.130;2023-12-29T03:28:51;8.80;99.90
15617;DHT22;7908;51.688;7.130;2023-12-29T03:31:19;8.80;99.90
15617;DHT22;7908;51.688;7.130;2023-12-29T03:33:49;8.80;99.90
15617;DHT22;7908;51.688;7.130;2023-12-29T03:36:18;8.80;99.90
15617;DHT22;7908;51.688;7.130;2023-12-29T03:38:46;8.90;99.90
15617;DHT22;7908;51.688;7.130;2023-12-29T03:41:14;8.90;99.90
15617;DHT22;7908;51.688;7.130;2023-12-29T03:43:42;8.90;99.90
15617;DHT22;7908;51.688;7.130;2023-12-29T03:46:21;8.90;99.90
15617;DHT22;7908;51.688;7.130;2023-12-29T03:48:50;9.00;99.90
15617;DHT22;7908;51.688;7.130;2023-12-29T03:51:20;9.00;99.90
15617;DHT22;7908;51.688;7.130;2023-12-29T03:53:48;9.00;99.90
15617;DHT22;7908;51.688;7.130;2023-12-29T03:56:17;9.00;99.90
15617;DHT22;7908;51.688;7.130;2023-12-29T03:58:45;9.00;99.90
15617;DHT22;7908;51.688;7.130;2023-12-29T04:01:15;9.00;99.90
15617;DHT22;7908;51.688;7.130;2023-12-29T04:03:44;9.00;99.90
15617;DHT22;7908;51.688;7.130;2023-12-29T04:06:13;9.00;99.90
15617;DHT22;7908;51.688;7.130;2023-12-29T04:08:42;9.00;99.90
15617;DHT22;7908;51.688;7.130;2023-12-29T04:11:10;9.00;99.90
15617;DHT22;7908;51.688;7.130;2023-12-29T04:13:38;9.00;99.90
15617;DHT22;7908;51.688;7.130;2023-12-29T04:16:07;9.00;99.90
15617;DHT22;7908;51.688;7.130;2023-12-29T04:18:35;9.00;99.90
15617;DHT22;7908;51.688;7.130;2023-12-29T04:21:04;9.00;99.90
15617;DHT22;7908;51.688;7.130;2023-12-29T04:23:33;9.00;99.90
15617;DHT22;7908;51.688;7.130;2023-12-29T04:26:02;9.00;99.90
15617;DHT22;7908;51.688;7.130;2023-12-29T04:28:32;8.90;99.90
15617;DHT22;7908;51.688;7.130;2023-12-29T04:31:01;8.90;99.90
15617;DHT22;7908;51.688;7.130;2023-12-29T04:33:30;8.90;99.90
15617;DHT22;7908;51.688;7.130;2023-12-29T04:35:58;8.90;99.90
15617;DHT22;7908;51.688;7.130;2023-12-29T04:38:26;8.90;99.90
15617;DHT22;7908;51.688;7.130;2023-12-29T04:40:56;8.90;99.90
15617;DHT22;7908;51.688;7.130;2023-12-29T04:43:24;8.90;99.90
15617;DHT22;7908;51.688;7.130;2023-12-29T04:45:53;8.90;99.90
15617;DHT22;7908;51.688;7.130;2023-12-29T04:48:21;8.90;99.90
15617;DHT22;7908;51.688;7.130;2023-12-29T04:50:49;8.90;99.90
15617;DHT22;7908;51.688;7.130;2023-12-29T04:53:17;8.90;99.90
15617;DHT22;7908;51.688;7.130;2023-12-29T04:55:46;9.00;99.90
15617;DHT22;7908;51.688;7.130;2023-12-29T04:58:15;9.00;99.90
15617;DHT22;7908;51.688;7.130;2023-12-29T05:00:45;9.00;99.90
15617;DHT22;7908;51.688;7.130;2023-12-29T05:03:13;9.00;99.90
15617;DHT22;7908;51.688;7.130;2023-12-29T05:09:02;9.10;99.90
15617;DHT22;7908;51.688;7.130;2023-12-29T05:11:32;9.00;99.90
15617;DHT22;7908;51.688;7.130;2023-12-29T05:14:02;9.00;99.90
15617;DHT22;7908;51.688;7.130;2023-12-29T05:16:30;9.10;99.90
15617;DHT22;7908;51.688;7.130;2023-12-29T05:18:58;9.10;99.90
15617;DHT22;7908;51.688;7.130;2023-12-29T05:21:27;9.10;99.90
15617;DHT22;7908;51.688;7.130;2023-12-29T05:23:55;9.20;99.90
15617;DHT22;7908;51.688;7.130;2023-12-29T05:26:23;9.20;99.90
15617;DHT22;7908;51.688;7.130;2023-12-29T05:28:51;9.20;99.90
15617;DHT22;7908;51.688;7.130;2023-12-29T05:31:21;9.20;99.90
15617;DHT22;7908;51.688;7.130;2023-12-29T05:33:50;9.20;99.90
15617;DHT22;7908;51.688;7.130;2023-12-29T05:36:18;9.20;99.90
15617;DHT22;7908;51.688;7.130;2023-12-29T05:38:46;9.20;99.90
15617;DHT22;7908;51.688;7.130;2023-12-29T05:41:15;9.10;99.90
15617;DHT22;7908;51.688;7.130;2023-12-29T05:43:43;9.10;99.90
15617;DHT22;7908;51.688;7.130;2023-12-29T05:46:12;9.20;99.90
15617;DHT22;7908;51.688;7.130;2023-12-29T05:48:42;9.20;99.90
15617;DHT22;7908;51.688;7.130;2023-12-29T05:51:10;9.20;99.90
15617;DHT22;7908;51.688;7.130;2023-12-29T05:53:40;9.20;99.90
15617;DHT22;7908;51.688;7.130;2023-12-29T05:56:09;9.20;99.90
15617;DHT22;7908;51.688;7.130;2023-12-29T05:58:37;9.20;99.90
15617;DHT22;7908;51.688;7.130;2023-12-29T06:01:05;9.20;99.90
15617;DHT22;7908;51.688;7.130;2023-12-29T06:03:34;9.20;99.90
15617;DHT22;7908;51.688;7.130;2023-12-29T06:06:04;9.20;99.90
15617;DHT22;7908;51.688;7.130;2023-12-29T06:08:32;9.20;99.90
15617;DHT22;7908;51.688;7.130;2023-12-29T06:11:00;9.20;99.90
15617;DHT22;7908;51.688;7.130;2023-12-29T06:13:28;9.20;99.90
15617;DHT22;7908;51.688;7.130;2023-12-29T06:15:57;9.20;99.90
15617;DHT22;7908;51.688;7.130;2023-12-29T06:18:25;9.10;99.90
15617;DHT22;7908;51.688;7.130;2023-12-29T06:20:53;9.10;99.90
15617;DHT22;7908;51.688;7.130;2023-12-29T06:23:23;9.10;99.90
15617;DHT22;7908;51.688;7.130;2023-12-29T06:25:52;9.10;99.90
15617;DHT22;7908;51.688;7.130;2023-12-29T06:28:20;9.10;99.90
15617;DHT22;7908;51.688;7.130;2023-12-29T06:30:49;9.10;99.90
15617;DHT22;7908;51.688;7.130;2023-12-29T06:33:17;9.10;99.90
15617;DHT22;7908;51.688;7.130;2023-12-29T06:35:47;9.10;99.90
15617;DHT22;7908;51.688;7.130;2023-12-29T06:38:15;9.10;99.90
15617;DHT22;7908;51.688;7.130;2023-12-29T06:40:46;9.10;99.90
15617;DHT22;7908;51.688;7.130;2023-12-29T06:43:14;9.10;99.90
15617;DHT22;7908;51.688;7.130;2023-12-29T06:45:43;9.10;99.90
15617;DHT22;7908;51.688;7.130;2023-12-29T06:48:12;9.10;99.90
15617;DHT22;7908;51.688;7.130;2023-12-29T06:50:41;9.10;99.90
15617;DHT22;7908;51.688;7.130;2023-12-29T06:53:09;9.10;99.90
15617;DHT22;7908;51.688;7.130;2023-12-29T06:55:38;9.10;99.90
15617;DHT22;7908;51.688;7.130;2023-12-29T06:58:07;9.10;99.90
15617;DHT22;7908;51.688;7.130;2023-12-29T07:00:36;9.10;99.90
15617;DHT22;7908;51.688;7.130;2023-12-29T07:03:06;9.20;99.90
15617;DHT22;7908;51.688;7.130;2023-12-29T07:05:35;9.10;99.90
15617;DHT22;7908;51.688;7.130;2023-12-29T07:08:03;9.10;99.90
15617;DHT22;7908;51.688;7.130;2023-12-29T07:10:32;9.10;99.90
15617;DHT22;7908;51.688;7.130;2023-12-29T07:13:00;9.20;99.90
15617;DHT22;7908;51.688;7.130;2023-12-29T07:15:30;9.20;99.90
15617;DHT22;7908;51.688;7.130;2023-12-29T07:17:58;9.20;99.90
15617;DHT22;7908;51.688;7.130;2023-12-29T07:20:27;9.20;99.90
15617;DHT22;7908;51.688;7.130;2023-12-29T07:22:56;9.20;99.90
15617;DHT22;7908;51.688;7.130;2023-12-29T07:25:24;9.20;99.90
15617;DHT22;7908;51.688;7.130;2023-12-29T07:27:52;9.20;99.90
15617;DHT22;7908;51.688;7.130;2023-12-29T07:30:20;9.20;99.90
15617;DHT22;7908;51.688;7.130;2023-12-29T07:32:50;9.20;99.90
15617;DHT22;7908;51.688;7.130;2023-12-29T07:35:19;9.10;99.90
15617;DHT22;7908;51.688;7.130;2023-12-29T07:37:47;9.00;99.90
15617;DHT22;7908;51.688;7.130;2023-12-29T07:40:16;9.00;99.90
15617;DHT22;7908;51.688;7.130;2023-12-29T07:42:45;9.00;99.90
15617;DHT22;7908;51.688;7.130;2023-12-29T07:45:17;8.90;99.90
15617;DHT22;7908;51.688;7.130;2023-12-29T07:47:45;8.90;99.90
15617;DHT22;7908;51.688;7.130;2023-12-29T07:50:15;8.90;99.90
15617;DHT22;7908;51.688;7.130;2023-12-29T07:52:44;9.00;99.90
15617;DHT22;7908;51.688;7.130;2023-12-29T07:55:12;9.00;99.90
15617;DHT22;7908;51.688;7.130;2023-12-29T07:57:43;8.90;99.90
15617;DHT22;7908;51.688;7.130;2023-12-29T08:00:14;9.00;99.90
15617;DHT22;7908;51.688;7.130;2023-12-29T08:02:42;9.00;99.90
15617;DHT22;7908;51.688;7.130;2023-12-29T08:05:11;9.00;99.90
15617;DHT22;7908;51.688;7.130;2023-12-29T08:07:43;9.00;99.90
15617;DHT22;7908;51.688;7.130;2023-12-29T08:10:11;9.10;99.90
15617;DHT22;7908;51.688;7.130;2023-12-29T08:12:39;9.10;99.90
15617;DHT22;7908;51.688;7.130;2023-12-29T08:15:08;9.10;99.90
15617;DHT22;7908;51.688;7.130;2023-12-29T08:17:36;9.20;99.90
15617;DHT22;7908;51.688;7.130;2023-12-29T08:20:05;9.20;99.90
15617;DHT22;7908;51.688;7.130;2023-12-29T08:22:35;9.20;99.90
15617;DHT22;7908;51.688;7.130;2023-12-29T08:25:05;9.20;99.90
15617;DHT22;7908;51.688;7.130;2023-12-29T08:27:33;9.20;99.90
15617;DHT22;7908;51.688;7.130;2023-12-29T08:30:02;9.30;99.90
15617;DHT22;7908;51.688;7.130;2023-12-29T08:32:31;9.20;99.90
15617;DHT22;7908;51.688;7.130;2023-12-29T08:35:00;9.30;99.90
15617;DHT22;7908;51.688;7.130;2023-12-29T08:37:29;9.30;99.90
15617;DHT22;7908;51.688;7.130;2023-12-29T08:39:57;9.30;99.90
15617;DHT22;7908;51.688;7.130;2023-12-29T08:42:29;9.30;99.90
15617;DHT22;7908;51.688;7.130;2023-12-29T08:44:58;9.30;99.90
15617;DHT22;7908;51.688;7.130;2023-12-29T08:47:26;9.20;99.90
15617;DHT22;7908;51.688;7.130;2023-12-29T08:49:54;9.20;99.90
15617;DHT22;7908;51.688;7.130;2023-12-29T08:52:23;9.20;99.90
15617;DHT22;7908;51.688;7.130;2023-12-29T08:54:51;9.20;99.90
15617;DHT22;7908;51.688;7.130;2023-12-29T08:57:19;9.30;99.90
15617;DHT22;7908;51.688;7.130;2023-12-29T08:59:49;9.30;99.90
15617;DHT22;7908;51.688;7.130;2023-12-29T09:02:18;9.30;99.90
15617;DHT22;7908;51.688;7.130;2023-12-29T09:04:46;9.30;99.90
15617;DHT22;7908;51.688;7.130;2023-12-29T09:07:15;9.30;99.90
15617;DHT22;7908;51.688;7.130;2023-12-29T09:09:43;9.30;99.90
15617;DHT22;7908;51.688;7.130;2023-12-29T09:12:11;9.30;99.90
15617;DHT22;7908;51.688;7.130;2023-12-29T09:14:40;9.30;99.90
15617;DHT22;7908;51.688;7.130;2023-12-29T09:17:10;9.40;99.90
15617;DHT22;7908;51.688;7.130;2023-12-29T09:19:38;9.30;99.90
15617;DHT22;7908;51.688;7.130;2023-12-29T09:22:07;9.40;99.90
15617;DHT22;7908;51.688;7.130;2023-12-29T09:24:35;9.40;99.90
15617;DHT22;7908;51.688;7.130;2023-12-29T09:27:06;9.40;99.90
15617;DHT22;7908;51.688;7.130;2023-12-29T09:29:35;9.40;99.90
15617;DHT22;7908;51.688;7.130;2023-12-29T09:32:04;9.40;99.90
15617;DHT22;7908;51.688;7.130;2023-12-29T09:34:34;9.40;99.90
15617;DHT22;7908;51.688;7.130;2023-12-29T09:37:02;9.40;99.90
15617;DHT22;7908;51.688;7.130;2023-12-29T09:39:32;9.50;99.90
15617;DHT22;7908;51.688;7.130;2023-12-29T09:42:01;9.50;99.90
15617;DHT22;7908;51.688;7.130;2023-12-29T09:44:30;9.50;99.90
15617;DHT22;7908;51.688;7.130;2023-12-29T09:47:00;9.50;99.90
15617;DHT22;7908;51.688;7.130;2023-12-29T09:49:30;9.60;99.90
15617;DHT22;7908;51.688;7.130;2023-12-29T09:52:01;9.60;99.90
15617;DHT22;7908;51.688;7.130;2023-12-29T09:54:30;9.60;99.90
15617;DHT22;7908;51.688;7.130;2023-12-29T09:56:59;9.60;99.90
15617;DHT22;7908;51.688;7.130;2023-12-29T09:59:27;9.60;99.90
15617;DHT22;7908;51.688;7.130;2023-12-29T10:01:56;9.60;99.90
15617;DHT22;7908;51.688;7.130;2023-12-29T10:04:24;9.70;99.90
15617;DHT22;7908;51.688;7.130;2023-12-29T10:06:53;9.70;99.90
15617;DHT22;7908;51.688;7.130;2023-12-29T10:09:24;9.70;99.90
15617;DHT22;7908;51.688;7.130;2023-12-29T10:11:53;9.80;99.90
15617;DHT22;7908;51.688;7.130;2023-12-29T10:14:22;9.80;99.90
15617;DHT22;7908;51.688;7.130;2023-12-29T10:16:52;9.80;99.90
15617;DHT22;7908;51.688;7.130;2023-12-29T10:19:23;9.80;99.90
15617;DHT22;7908;51.688;7.130;2023-12-29T10:21:55;9.90;99.90
15617;DHT22;7908;51.688;7.130;2023-12-29T10:24:27;9.90;99.90
15617;DHT22;7908;51.688;7.130;2023-12-29T10:26:55;9.90;99.90
15617;DHT22;7908;51.688;7.130;2023-12-29T10:29:23;9.90;99.90
15617;DHT22;7908;51.688;7.130;2023-12-29T10:31:52;9.90;99.90
15617;DHT22;7908;51.688;7.130;2023-12-29T10:34:21;9.90;99.90
15617;DHT22;7908;51.688;7.130;2023-12-29T10:36:56;9.90;99.90
15617;DHT22;7908;51.688;7.130;2023-12-29T10:39:24;9.90;99.90
15617;DHT22;7908;51.688;7.130;2023-12-29T10:42:02;9.90;99.90
15617;DHT22;7908;51.688;7.130;2023-12-29T10:44:30;9.90;99.90
15617;DHT22;7908;51.688;7.130;2023-12-29T10:46:59;9.90;99.90
15617;DHT22;7908;51.688;7.130;2023-12-29T10:49:35;9.90;99.90
15617;DHT22;7908;51.688;7.130;2023-12-29T10:52:10;9.90;99.90
15617;DHT22;7908;51.688;7.130;2023-12-29T10:54:39;9.90;99.90
15617;DHT22;7908;51.688;7.130;2023-12-29T10:57:09;9.90;99.90
15617;DHT22;7908;51.688;7.130;2023-12-29T10:59:38;9.90;99.90
15617;DHT22;7908;51.688;7.130;2023-12-29T11:02:07;10.00;99.90
15617;DHT22;7908;51.688;7.130;2023-12-29T11:04:51;10.00;99.90
15617;DHT22;7908;51.688;7.130;2023-12-29T11:07:30;10.00;99.90
15617;DHT22;7908;51.688;7.130;2023-12-29T11:10:00;10.00;99.90
15617;DHT22;7908;51.688;7.130;2023-12-29T11:12:35;10.00;99.90
15617;DHT22;7908;51.688;7.130;2023-12-29T11:15:04;10.00;99.90
15617;DHT22;7908;51.688;7.130;2023-12-29T11:17:34;10.00;99.90
15617;DHT22;7908;51.688;7.130;2023-12-29T11:20:04;10.00;99.90
15617;DHT22;7908;51.688;7.130;2023-12-29T11:22:35;10.00;99.90
15617;DHT22;7908;51.688;7.130;2023-12-29T11:25:05;10.00;99.90
15617;DHT22;7908;51.688;7.130;2023-12-29T11:27:38;10.00;99.90
15617;DHT22;7908;51.688;7.130;2023-12-29T11:30:10;10.00;99.90
15617;DHT22;7908;51.688;7.130;2023-12-29T11:32:47;10.00;99.90
15617;DHT22;7908;51.688;7.130;2023-12-29T11:35:20;10.00;99.90
15617;DHT22;7908;51.688;7.130;2023-12-29T11:38:03;10.00;99.90
15617;DHT22;7908;51.688;7.130;2023-12-29T11:40:41;10.00;99.90
15617;DHT22;7908;51.688;7.130;2023-12-29T11:43:15;10.10;99.90
15617;DHT22;7908;51.688;7.130;2023-12-29T11:45:49;10.10;99.90
15617;DHT22;7908;51.688;7.130;2023-12-29T11:53:53;10.10;99.90
15617;DHT22;7908;51.688;7.130;2023-12-29T11:56:23;10.10;99.90
15617;DHT22;7908;51.688;7.130;2023-12-29T11:59:03;10.10;99.90
15617;DHT22;7908;51.688;7.130;2023-12-29T12:01:41;10.10;99.90
15617;DHT22;7908;51.688;7.130;2023-12-29T12:04:39;10.10;99.90
15617;DHT22;7908;51.688;7.130;2023-12-29T12:07:16;10.10;99.90
15617;DHT22;7908;51.688;7.130;2023-12-29T12:09:47;10.10;99.90
15617;DHT22;7908;51.688;7.130;2023-12-29T12:15:05;10.20;99.90
15617;DHT22;7908;51.688;7.130;2023-12-29T12:17:57;10.20;99.90
15617;DHT22;7908;51.688;7.130;2023-12-29T12:20:30;10.30;99.90
15617;DHT22;7908;51.688;7.130;2023-12-29T12:23:01;10.30;99.90
15617;DHT22;7908;51.688;7.130;2023-12-29T12:25:32;10.30;99.90
15617;DHT22;7908;51.688;7.130;2023-12-29T12:28:05;10.30;99.90
15617;DHT22;7908;51.688;7.130;2023-12-29T12:30:36;10.30;99.90
15617;DHT22;7908;51.688;7.130;2023-12-29T12:33:06;10.30;99.90
15617;DHT22;7908;51.688;7.130;2023-12-29T12:35:41;10.30;99.90
15617;DHT22;7908;51.688;7.130;2023-12-29T12:38:15;10.40;99.90
15617;DHT22;7908;51.688;7.130;2023-12-29T12:40:51;10.30;99.90
15617;DHT22;7908;51.688;7.130;2023-12-29T12:43:23;10.30;99.90
15617;DHT22;7908;51.688;7.130;2023-12-29T12:45:59;10.30;99.90
15617;DHT22;7908;51.688;7.130;2023-12-29T12:48:32;10.30;99.90
15617;DHT22;7908;51.688;7.130;2023-12-29T12:51:06;10.40;99.90
15617;DHT22;7908;51.688;7.130;2023-12-29T12:53:43;10.30;99.90
15617;DHT22;7908;51.688;7.130;2023-12-29T12:56:15;10.30;99.90
15617;DHT22;7908;51.688;7.130;2023-12-29T12:58:45;10.30;99.90
15617;DHT22;7908;51.688;7.130;2023-12-29T13:01:18;10.30;99.90
15617;DHT22;7908;51.688;7.130;2023-12-29T13:03:48;10.20;99.90
15617;DHT22;7908;51.688;7.130;2023-12-29T13:06:17;10.00;99.90
15617;DHT22;7908;51.688;7.130;2023-12-29T13:08:49;9.90;99.90
15617;DHT22;7908;51.688;7.130;2023-12-29T13:11:19;9.70;99.90
15617;DHT22;7908;51.688;7.130;2023-12-29T13:13:52;9.60;99.90
15617;DHT22;7908;51.688;7.130;2023-12-29T13:16:32;9.40;99.90
15617;DHT22;7908;51.688;7.130;2023-12-29T13:19:16;9.40;99.90
15617;DHT22;7908;51.688;7.130;2023-12-29T13:21:47;9.30;99.90
15617;DHT22;7908;51.688;7.130;2023-12-29T13:24:17;9.30;99.90
15617;DHT22;7908;51.688;7.130;2023-12-29T13:26:47;9.20;99.90
15617;DHT22;7908;51.688;7.130;2023-12-29T13:29:22;9.10;99.90
15617;DHT22;7908;51.688;7.130;2023-12-29T13:31:58;9.10;99.90
15617;DHT22;7908;51.688;7.130;2023-12-29T13:34:32;9.00;99.90
15617;DHT22;7908;51.688;7.130;2023-12-29T13:37:09;8.90;99.90
15617;DHT22;7908;51.688;7.130;2023-12-29T13:39:44;8.80;99.90
15617;DHT22;7908;51.688;7.130;2023-12-29T13:42:15;8.80;99.90
15617;DHT22;7908;51.688;7.130;2023-12-29T13:44:45;8.80;99.90
15617;DHT22;7908;51.688;7.130;2023-12-29T13:47:19;8.70;99.90
15617;DHT22;7908;51.688;7.130;2023-12-29T13:49:48;8.70;99.90
15617;DHT22;7908;51.688;7.130;2023-12-29T13:52:18;8.70;99.90
15617;DHT22;7908;51.688;7.130;2023-12-29T13:54:47;8.70;99.90
15617;DHT22;7908;51.688;7.130;2023-12-29T13:57:18;8.70;99.90
15617;DHT22;7908;51.688;7.130;2023-12-29T13:59:52;8.70;99.90
15617;DHT22;7908;51.688;7.130;2023-12-29T14:02:31;8.70;99.90
15617;DHT22;7908;51.688;7.130;2023-12-29T14:05:10;8.60;99.90
15617;DHT22;7908;51.688;7.130;2023-12-29T14:07:43;8.70;99.90
15617;DHT22;7908;51.688;7.130;2023-12-29T14:10:13;8.70;99.90
15617;DHT22;7908;51.688;7.130;2023-12-29T14:12:42;8.70;99.90
15617;DHT22;7908;51.688;7.130;2023-12-29T14:15:11;8.60;99.90
15617;DHT22;7908;51.688;7.130;2023-12-29T14:17:48;8.60;99.90
15617;DHT22;7908;51.688;7.130;2023-12-29T14:20:32;8.60;99.90
15617;DHT22;7908;51.688;7.130;2023-12-29T14:23:02;8.60;99.90
15617;DHT22;7908;51.688;7.130;2023-12-29T14:25:34;8.60;99.90
15617;DHT22;7908;51.688;7.130;2023-12-29T14:28:13;8.50;99.90
15617;DHT22;7908;51.688;7.130;2023-12-29T14:30:44;8.50;99.90
15617;DHT22;7908;51.688;7.130;2023-12-29T14:33:14;8.50;99.90
15617;DHT22;7908;51.688;7.130;2023-12-29T14:35:43;8.50;99.90
15617;DHT22;7908;51.688;7.130;2023-12-29T14:38:16;8.40;99.90
15617;DHT22;7908;51.688;7.130;2023-12-29T14:40:46;8.40;99.90
15617;DHT22;7908;51.688;7.130;2023-12-29T14:43:18;8.30;99.90
15617;DHT22;7908;51.688;7.130;2023-12-29T14:45:49;8.30;99.90
15617;DHT22;7908;51.688;7.130;2023-12-29T14:48:22;8.30;99.90
15617;DHT22;7908;51.688;7.130;2023-12-29T14:50:56;8.30;99.90
15617;DHT22;7908;51.688;7.130;2023-12-29T14:53:29;8.40;99.90
15617;DHT22;7908;51.688;7.130;2023-12-29T14:55:58;8.40;99.90
15617;DHT22;7908;51.688;7.130;2023-12-29T14:58:30;8.40;99.90
15617;DHT22;7908;51.688;7.130;2023-12-29T15:03:52;8.40;99.90
15617;DHT22;7908;51.688;7.130;2023-12-29T15:06:22;8.40;99.90
15617;DHT22;7908;51.688;7.130;2023-12-29T15:08:53;8.50;99.90
15617;DHT22;7908;51.688;7.130;2023-12-29T15:11:22;8.60;99.90
15617;DHT22;7908;51.688;7.130;2023-12-29T15:13:54;8.60;99.90
15617;DHT22;7908;51.688;7.130;2023-12-29T15:16:22;8.60;99.90
15617;DHT22;7908;51.688;7.130;2023-12-29T15:18:52;8.60;99.90
15617;DHT22;7908;51.688;7.130;2023-12-29T15:21:21;8.60;99.90
15617;DHT22;7908;51.688;7.130;2023-12-29T15:23:50;8.60;99.90
15617;DHT22;7908;51.688;7.130;2023-12-29T15:26:23;8.60;99.90
15617;DHT22;7908;51.688;7.130;2023-12-29T15:28:52;8.70;99.90
15617;DHT22;7908;51.688;7.130;2023-12-29T15:31:22;8.70;99.90
15617;DHT22;7908;51.688;7.130;2023-12-29T15:33:54;8.80;99.90
15617;DHT22;7908;51.688;7.130;2023-12-29T15:36:26;8.80;99.90
15617;DHT22;7908;51.688;7.130;2023-12-29T15:38:54;8.90;99.90
15617;DHT22;7908;51.688;7.130;2023-12-29T15:41:25;8.90;99.90
15617;DHT22;7908;51.688;7.130;2023-12-29T15:43:54;8.90;99.90
15617;DHT22;7908;51.688;7.130;2023-12-29T15:46:26;8.90;99.90
15617;DHT22;7908;51.688;7.130;2023-12-29T15:48:57;8.90;99.90
15617;DHT22;7908;51.688;7.130;2023-12-29T15:51:28;8.80;99.90
15617;DHT22;7908;51.688;7.130;2023-12-29T15:53:57;8.80;99.90
15617;DHT22;7908;51.688;7.130;2023-12-29T15:56:26;8.80;99.90
15617;DHT22;7908;51.688;7.130;2023-12-29T15:58:55;8.80;99.90
15617;DHT22;7908;51.688;7.130;2023-12-29T16:01:25;8.70;99.90
15617;DHT22;7908;51.688;7.130;2023-12-29T16:03:58;8.70;99.90
15617;DHT22;7908;51.688;7.130;2023-12-29T16:06:27;8.70;99.90
15617;DHT22;7908;51.688;7.130;2023-12-29T16:09:00;8.70;99.90
15617;DHT22;7908;51.688;7.130;2023-12-29T16:11:31;8.70;99.90
15617;DHT22;7908;51.688;7.130;2023-12-29T16:14:00;8.70;99.90
15617;DHT22;7908;51.688;7.130;2023-12-29T16:16:30;8.80;99.90
15617;DHT22;7908;51.688;7.130;2023-12-29T16:19:00;8.80;99.90
15617;DHT22;7908;51.688;7.130;2023-12-29T16:21:34;8.80;99.90
15617;DHT22;7908;51.688;7.130;2023-12-29T16:24:05;8.80;99.90
15617;DHT22;7908;51.688;7.130;2023-12-29T16:26:34;8.80;99.90
15617;DHT22;7908;51.688;7.130;2023-12-29T16:29:15;8.80;99.90
15617;DHT22;7908;51.688;7.130;2023-12-29T16:31:45;8.90;99.90
15617;DHT22;7908;51.688;7.130;2023-12-29T16:34:16;8.90;99.90
15617;DHT22;7908;51.688;7.130;2023-12-29T16:36:55;8.90;99.90